createdAt,value
2023-04-28T00:00:54.160Z,5.40
2023-04-28T00:03:21.902Z,5.07
2023-04-28T00:05:49.877Z,5.13
2023-04-28T00:08:17.576Z,5.07
2023-04-28T00:10:45.997Z,6.03
2023-04-28T00:13:13.637Z,6.03
2023-04-28T00:15:41.415Z,5.30
2023-04-28T00:18:09.013Z,5.63
2023-04-28T00:20:36.908Z,5.40
2023-04-28T00:23:04.887Z,5.43
2023-04-28T00:25:33.220Z,5.57
2023-04-28T00:28:01.710Z,5.57
2023-04-28T00:30:30.587Z,5.50
2023-04-28T00:32:57.841Z,5.97
2023-04-28T00:35:25.800Z,5.60
2023-04-28T00:37:53.371Z,5.47
2023-04-28T00:40:21.199Z,5.43
2023-04-28T00:42:48.889Z,6.40
2023-04-28T00:45:16.749Z,5.77
2023-04-28T00:47:44.569Z,5.90
2023-04-28T00:50:13.265Z,5.57
2023-04-28T00:52:41.478Z,5.50
2023-04-28T00:55:09.868Z,5.37
2023-04-28T00:57:38.049Z,5.40
2023-04-28T01:00:06.732Z,5.27
2023-04-28T01:02:34.697Z,5.27
2023-04-28T01:05:02.852Z,5.23
2023-04-28T01:07:30.277Z,4.73
2023-04-28T01:09:58.076Z,5.20
2023-04-28T01:12:30.972Z,5.10
2023-04-28T01:14:59.896Z,5.57
2023-04-28T01:17:27.529Z,6.20
2023-04-28T01:19:56.103Z,5.67
2023-04-28T01:22:23.747Z,6.03
2023-04-28T01:24:51.829Z,5.70
2023-04-28T01:27:19.424Z,6.60
2023-04-28T01:29:46.866Z,5.73
2023-04-28T01:32:14.594Z,6.47
2023-04-28T01:34:42.389Z,5.47
2023-04-28T01:37:10.001Z,6.03
2023-04-28T01:39:38.399Z,5.20
2023-04-28T01:42:06.600Z,5.40
2023-04-28T01:44:35.138Z,5.20
2023-04-28T01:47:02.839Z,5.50
2023-04-28T01:49:30.865Z,5.30
2023-04-28T01:51:58.969Z,5.90
2023-04-28T01:54:27.602Z,5.07
2023-04-28T01:56:55.569Z,5.77
2023-04-28T01:59:23.790Z,5.93
2023-04-28T02:01:51.532Z,6.07
2023-04-28T02:04:19.963Z,5.83
2023-04-28T02:06:47.796Z,6.67
2023-04-28T02:09:15.601Z,6.67
2023-04-28T02:11:43.409Z,5.93
2023-04-28T02:14:11.392Z,5.77
2023-04-28T02:16:39.060Z,6.03
2023-04-28T02:19:07.086Z,5.60
2023-04-28T02:21:34.860Z,6.83
2023-04-28T02:24:03.156Z,6.20
2023-04-28T02:26:32.623Z,6.20
2023-04-28T02:29:01.137Z,5.07
2023-04-28T02:31:33.323Z,5.60
2023-04-28T02:34:01.360Z,5.40
2023-04-28T02:36:29.124Z,5.70
2023-04-28T02:38:57.068Z,6.87
2023-04-28T02:41:24.780Z,6.93
2023-04-28T02:43:52.772Z,6.97
2023-04-28T02:46:20.857Z,7.13
2023-04-28T02:48:48.639Z,7.17
2023-04-28T02:51:16.286Z,6.60
2023-04-28T02:53:44.121Z,7.40
2023-04-28T02:56:11.949Z,6.23
2023-04-28T02:58:39.778Z,6.27
2023-04-28T03:01:07.423Z,6.40
2023-04-28T03:03:35.514Z,6.23
2023-04-28T03:06:03.244Z,5.67
2023-04-28T03:08:31.738Z,6.57
2023-04-28T03:10:59.604Z,6.43
2023-04-28T03:13:30.164Z,6.53
2023-04-28T03:15:58.334Z,7.10
2023-04-28T03:18:26.480Z,6.90
2023-04-28T03:20:55.893Z,6.63
2023-04-28T03:23:23.652Z,6.90
2023-04-28T03:25:51.491Z,7.60
2023-04-28T03:28:19.626Z,7.17
2023-04-28T03:30:47.240Z,7.67
2023-04-28T03:33:15.233Z,7.10
2023-04-28T03:35:43.307Z,7.43
2023-04-28T03:38:11.697Z,6.07
2023-04-28T03:40:39.645Z,6.70
2023-04-28T03:43:27.752Z,7.17
2023-04-28T03:46:12.500Z,6.97
2023-04-28T03:48:40.930Z,6.83
2023-04-28T03:51:08.575Z,7.07
2023-04-28T03:53:36.711Z,7.20
2023-04-28T03:56:05.941Z,6.57
2023-04-28T03:58:34.018Z,6.90
2023-04-28T04:01:02.178Z,6.33
2023-04-28T04:03:30.233Z,7.47
2023-04-28T04:05:58.423Z,6.73
2023-04-28T04:08:26.517Z,6.73
2023-04-28T04:10:56.057Z,7.73
2023-04-28T04:13:24.203Z,8.27
2023-04-28T04:15:53.011Z,8.20
2023-04-28T04:18:23.638Z,7.87
2023-04-28T04:21:13.974Z,8.23
2023-04-28T04:23:41.975Z,7.17
2023-04-28T04:26:09.758Z,7.93
2023-04-28T04:28:38.708Z,7.77
2023-04-28T04:31:08.875Z,8.40
2023-04-28T04:33:37.818Z,8.90
2023-04-28T04:36:07.494Z,8.37
2023-04-28T04:38:35.522Z,9.40
2023-04-28T04:41:13.793Z,8.90
2023-04-28T04:43:42.015Z,9.57
2023-04-28T04:46:09.674Z,9.47
2023-04-28T04:48:37.724Z,9.40
2023-04-28T04:51:05.466Z,10.57
2023-04-28T04:53:33.610Z,11.23
2023-04-28T04:56:03.048Z,10.83
2023-04-28T04:58:32.355Z,10.60
2023-04-28T05:01:26.776Z,10.97
2023-04-28T05:03:54.933Z,11.83
2023-04-28T05:06:22.447Z,11.00
2023-04-28T05:08:50.384Z,11.20
2023-04-28T05:11:19.296Z,11.50
2023-04-28T05:13:48.612Z,11.53
2023-04-28T05:16:16.662Z,13.03
2023-04-28T05:18:56.121Z,14.90
2023-04-28T05:21:23.864Z,17.03
2023-04-28T05:23:52.638Z,15.60
2023-04-28T05:26:20.865Z,17.07
2023-04-28T05:28:48.842Z,19.17
2023-04-28T05:31:16.861Z,19.10
2023-04-28T05:33:45.251Z,18.70
2023-04-28T05:36:17.000Z,19.67
2023-04-28T05:38:46.700Z,19.83
2023-04-28T05:41:14.550Z,22.73
2023-04-28T05:43:42.750Z,25.23
2023-04-28T05:46:26.151Z,25.87
2023-04-28T05:48:59.417Z,33.20
2023-04-28T05:51:29.216Z,33.90
2023-04-28T05:53:58.226Z,33.67
2023-04-28T05:56:27.609Z,32.67
2023-04-28T05:58:55.917Z,31.33
2023-04-28T06:01:23.769Z,30.70
2023-04-28T06:03:53.391Z,25.27
2023-04-28T06:06:21.876Z,21.73
2023-04-28T06:08:49.774Z,21.67
2023-04-28T06:11:19.320Z,19.97
2023-04-28T06:13:47.142Z,18.47
2023-04-28T06:16:14.844Z,17.87
2023-04-28T06:18:43.316Z,16.37
2023-04-28T06:21:10.590Z,14.70
2023-04-28T06:23:40.735Z,16.33
2023-04-28T06:26:08.311Z,17.43
2023-04-28T06:28:39.701Z,14.37
2023-04-28T06:31:08.592Z,13.67
2023-04-28T06:33:36.521Z,11.53
2023-04-28T06:36:04.626Z,12.00
2023-04-28T06:38:31.959Z,11.13
2023-04-28T06:40:59.068Z,14.90
2023-04-28T06:43:27.031Z,9.40
2023-04-28T06:46:23.588Z,7.22
2023-04-28T06:48:51.395Z,7.55
2023-04-28T06:51:19.056Z,7.40
2023-04-28T06:53:46.481Z,9.35
2023-04-28T06:56:14.364Z,10.30
2023-04-28T06:58:41.777Z,5.90
2023-04-28T07:01:08.869Z,5.13
2023-04-28T07:03:36.840Z,4.20
2023-04-28T07:06:04.907Z,3.67
2023-04-28T07:08:32.899Z,6.53
2023-04-28T07:11:00.110Z,4.43
2023-04-28T07:13:27.630Z,2.90
2023-04-28T07:15:55.219Z,2.40
2023-04-28T07:18:22.840Z,2.10
2023-04-28T07:20:50.831Z,1.98
2023-04-28T07:23:18.718Z,2.22
2023-04-28T07:25:46.081Z,2.30
2023-04-28T07:28:14.256Z,2.30
2023-04-28T07:30:41.875Z,1.67
2023-04-28T07:33:09.434Z,1.90
2023-04-28T07:35:36.611Z,1.88
2023-04-28T07:38:04.091Z,1.65
2023-04-28T07:40:31.638Z,1.58
2023-04-28T07:42:59.591Z,1.90
2023-04-28T07:45:27.368Z,1.73
2023-04-28T07:47:54.812Z,1.98
2023-04-28T07:50:22.932Z,3.47
2023-04-28T07:52:50.667Z,2.53
2023-04-28T07:55:18.024Z,1.95
2023-04-28T07:57:45.645Z,1.80
2023-04-28T08:00:13.407Z,2.03
2023-04-28T08:02:41.160Z,2.17
2023-04-28T08:05:09.856Z,1.58
2023-04-28T08:07:38.155Z,2.00
2023-04-28T08:10:05.603Z,2.45
2023-04-28T08:12:33.469Z,1.88
2023-04-28T08:15:01.497Z,1.98
2023-04-28T08:17:29.378Z,1.75
2023-04-28T08:19:56.964Z,2.05
2023-04-28T08:22:24.407Z,1.88
2023-04-28T08:24:51.459Z,2.08
2023-04-28T08:27:18.904Z,2.42
2023-04-28T08:29:46.064Z,2.53
2023-04-28T08:32:13.841Z,2.10
2023-04-28T08:34:41.326Z,2.17
2023-04-28T08:37:08.671Z,2.95
2023-04-28T08:39:36.139Z,2.42
2023-04-28T08:42:07.354Z,2.20
2023-04-28T08:44:41.843Z,2.55
2023-04-28T08:47:14.317Z,3.60
2023-04-28T08:49:41.923Z,3.00
2023-04-28T08:52:16.857Z,2.30
2023-04-28T08:54:44.657Z,1.85
2023-04-28T08:57:12.168Z,2.85
2023-04-28T08:59:40.949Z,2.45
2023-04-28T09:02:09.513Z,2.65
2023-04-28T09:04:38.135Z,1.90
2023-04-28T09:07:11.969Z,2.08
2023-04-28T09:09:40.839Z,2.22
2023-04-28T09:12:08.581Z,1.98
2023-04-28T09:14:37.413Z,1.80
2023-04-28T09:17:14.332Z,2.05
2023-04-28T09:19:44.759Z,2.13
2023-04-28T09:22:25.315Z,2.33
2023-04-28T09:24:55.791Z,2.25
2023-04-28T09:27:29.604Z,2.20
2023-04-28T09:29:57.080Z,2.47
2023-04-28T09:32:27.896Z,2.17
2023-04-28T09:34:59.710Z,2.85
2023-04-28T09:37:31.069Z,1.90
2023-04-28T09:40:05.537Z,1.77
2023-04-28T09:42:43.853Z,1.88
2023-04-28T09:45:15.952Z,1.50
2023-04-28T09:47:47.135Z,1.40
2023-04-28T09:50:17.859Z,1.77
2023-04-28T09:52:57.037Z,1.73
2023-04-28T09:55:25.154Z,1.45
2023-04-28T09:57:55.406Z,1.67
2023-04-28T10:00:23.869Z,1.60
2023-04-28T10:02:52.865Z,1.58
2023-04-28T10:05:23.583Z,1.60
2023-04-28T10:07:54.196Z,1.80
2023-04-28T10:10:21.987Z,1.17
2023-04-28T10:12:49.816Z,1.40
2023-04-28T10:15:17.485Z,1.60
2023-04-28T10:17:46.933Z,1.60
2023-04-28T10:20:17.378Z,1.50
2023-04-28T10:23:21.635Z,1.40
2023-04-28T10:25:50.535Z,1.83
2023-04-28T10:28:18.772Z,1.42
2023-04-28T10:31:10.134Z,1.80
2023-04-28T10:33:39.530Z,1.80
2023-04-28T10:36:08.103Z,1.70
2023-04-28T10:38:37.269Z,1.42
2023-04-28T10:41:04.813Z,2.03
2023-04-28T10:43:40.855Z,1.70
2023-04-28T10:46:10.894Z,2.08
2023-04-28T10:48:49.141Z,1.63
2023-04-28T10:51:17.788Z,1.50
2023-04-28T10:53:46.853Z,7.20
2023-04-28T10:56:19.048Z,1.63
2023-04-28T10:58:57.422Z,1.83
2023-04-28T11:01:25.989Z,1.60
2023-04-28T11:04:04.652Z,2.85
2023-04-28T11:06:36.838Z,2.30
2023-04-28T11:09:17.969Z,1.60
2023-04-28T11:11:59.610Z,2.10
2023-04-28T11:14:36.567Z,1.58
2023-04-28T11:17:11.762Z,1.65
2023-04-28T11:19:43.172Z,2.03
2023-04-28T11:22:23.741Z,1.90
2023-04-28T11:25:03.466Z,2.00
2023-04-28T11:27:34.372Z,1.52
2023-04-28T11:30:02.942Z,1.42
2023-04-28T11:32:34.275Z,2.20
2023-04-28T11:35:04.988Z,2.22
2023-04-28T11:37:32.272Z,2.30
2023-04-28T11:40:11.163Z,1.40
2023-04-28T11:42:48.676Z,1.60
2023-04-28T11:45:16.592Z,1.60
2023-04-28T11:47:44.018Z,1.70
2023-04-28T11:50:12.984Z,3.45
2023-04-28T11:52:52.382Z,2.30
2023-04-28T11:55:21.127Z,2.95
2023-04-28T11:57:48.264Z,1.85
2023-04-28T12:00:22.191Z,2.05
2023-04-28T12:02:49.952Z,2.00
2023-04-28T12:05:17.698Z,2.40
2023-04-28T12:07:45.669Z,2.08
2023-04-28T12:10:18.865Z,2.35
2023-04-28T12:12:53.085Z,2.15
2023-04-28T12:15:22.705Z,2.13
2023-04-28T12:17:51.252Z,2.30
2023-04-28T12:20:37.349Z,2.47
2023-04-28T12:23:05.710Z,3.95
2023-04-28T12:25:35.371Z,3.42
2023-04-28T12:28:08.491Z,3.28
2023-04-28T12:30:44.195Z,3.17
2023-04-28T12:33:25.863Z,3.63
2023-04-28T12:35:57.699Z,3.17
2023-04-28T12:38:25.965Z,4.03
2023-04-28T12:40:54.045Z,3.35
2023-04-28T12:43:24.238Z,3.67
2023-04-28T12:45:56.749Z,3.28
2023-04-28T12:48:25.370Z,3.90
2023-04-28T12:50:53.221Z,3.67
2023-04-28T12:53:20.505Z,3.85
2023-04-28T12:55:48.157Z,3.55
2023-04-28T12:58:15.558Z,3.50
2023-04-28T13:00:43.342Z,3.15
2023-04-28T13:03:10.805Z,3.40
2023-04-28T13:05:38.360Z,3.15
2023-04-28T13:08:05.842Z,3.65
2023-04-28T13:10:33.309Z,3.55
2023-04-28T13:13:00.598Z,3.90
2023-04-28T13:15:28.353Z,4.07
2023-04-28T13:17:55.538Z,5.28
2023-04-28T13:20:23.207Z,4.53
2023-04-28T13:22:50.512Z,3.90
2023-04-28T13:25:19.446Z,4.15
2023-04-28T13:27:47.850Z,3.40
2023-04-28T13:30:15.720Z,3.85
2023-04-28T13:32:43.113Z,4.70
2023-04-28T13:35:11.966Z,5.20
2023-04-28T13:37:42.859Z,4.60
2023-04-28T13:40:12.014Z,4.82
2023-04-28T13:42:44.450Z,4.97
2023-04-28T13:45:17.574Z,4.38
2023-04-28T13:47:45.610Z,4.32
2023-04-28T13:50:13.279Z,4.88
2023-04-28T13:52:42.563Z,4.68
2023-04-28T13:55:11.250Z,4.80
2023-04-28T13:57:38.579Z,5.30
2023-04-28T14:00:07.246Z,4.68
2023-04-28T14:02:35.009Z,4.32
2023-04-28T14:05:04.350Z,4.60
2023-04-28T14:07:31.682Z,4.65
2023-04-28T14:10:00.134Z,4.30
2023-04-28T14:12:27.423Z,4.90
2023-04-28T14:14:55.141Z,4.57
2023-04-28T14:17:22.389Z,4.53
2023-04-28T14:19:50.041Z,7.85
2023-04-28T14:22:17.463Z,5.22
2023-04-28T14:24:45.624Z,4.65
2023-04-28T14:27:13.924Z,4.90
2023-04-28T14:29:42.488Z,5.38
2023-04-28T14:32:09.799Z,4.70
2023-04-28T14:34:37.737Z,4.72
2023-04-28T14:37:05.241Z,5.22
2023-04-28T14:39:33.127Z,4.03
2023-04-28T14:42:01.021Z,4.78
2023-04-28T14:44:28.984Z,4.35
2023-04-28T14:46:57.051Z,4.85
2023-04-28T14:49:25.011Z,5.65
2023-04-28T14:51:52.638Z,6.13
2023-04-28T14:54:21.930Z,5.68
2023-04-28T14:56:50.473Z,4.90
2023-04-28T14:59:19.166Z,5.43
2023-04-28T15:01:46.663Z,4.90
2023-04-28T15:04:14.391Z,4.90
2023-04-28T15:06:41.930Z,5.88
2023-04-28T15:09:09.499Z,5.22
2023-04-28T15:11:37.085Z,5.97
2023-04-28T15:14:04.615Z,6.15
2023-04-28T15:16:31.894Z,5.30
2023-04-28T15:19:00.349Z,5.40
2023-04-28T15:21:28.658Z,5.70
2023-04-28T15:23:56.368Z,5.63
2023-04-28T15:26:23.907Z,5.85
2023-04-28T15:28:51.637Z,5.50
2023-04-28T15:31:19.102Z,5.70
2023-04-28T15:33:46.900Z,5.50
2023-04-28T15:36:14.235Z,5.90
2023-04-28T15:38:42.842Z,5.68
2023-04-28T15:41:10.215Z,5.30
2023-04-28T15:43:41.000Z,5.32
2023-04-28T15:46:11.591Z,5.25
2023-04-28T15:48:39.791Z,5.18
2023-04-28T15:51:07.656Z,5.45
2023-04-28T15:53:35.413Z,5.00
2023-04-28T15:56:04.563Z,5.03
2023-04-28T15:58:32.719Z,4.78
2023-04-28T16:01:00.458Z,4.82
2023-04-28T16:03:28.465Z,5.30
2023-04-28T16:05:56.794Z,5.25
2023-04-28T16:08:25.326Z,5.10
2023-04-28T16:10:53.164Z,5.32
2023-04-28T16:13:20.675Z,5.25
2023-04-28T16:15:49.716Z,4.70
2023-04-28T16:18:17.763Z,4.45
2023-04-28T16:20:45.172Z,4.53
2023-04-28T16:23:14.771Z,5.68
2023-04-28T16:25:42.072Z,5.28
2023-04-28T16:28:09.792Z,3.40
2023-04-28T16:30:37.161Z,4.70
2023-04-28T16:33:05.336Z,5.38
2023-04-28T16:35:32.898Z,5.28
2023-04-28T16:38:00.661Z,4.15
2023-04-28T16:40:28.890Z,5.40
2023-04-28T16:42:56.655Z,4.97
2023-04-28T16:45:24.173Z,6.13
2023-04-28T16:47:51.880Z,4.90
2023-04-28T16:50:19.378Z,5.78
2023-04-28T16:52:48.243Z,5.20
2023-04-28T16:55:15.785Z,4.75
2023-04-28T16:57:43.550Z,5.30
2023-04-28T17:00:11.639Z,4.68
2023-04-28T17:02:39.428Z,4.85
2023-04-28T17:05:07.457Z,5.43
2023-04-28T17:07:35.160Z,6.60
2023-04-28T17:10:03.819Z,5.30
2023-04-28T17:12:31.559Z,5.18
2023-04-28T17:14:59.145Z,5.32
2023-04-28T17:17:27.412Z,5.90
2023-04-28T17:19:55.822Z,5.57
2023-04-28T17:22:23.609Z,5.38
2023-04-28T17:24:51.073Z,6.25
2023-04-28T17:27:18.659Z,6.38
2023-04-28T17:29:45.969Z,7.32
2023-04-28T17:32:13.754Z,6.72
2023-04-28T17:34:41.777Z,6.80
2023-04-28T17:37:09.296Z,7.75
2023-04-28T17:39:36.606Z,8.57
2023-04-28T17:42:05.261Z,7.20
2023-04-28T17:44:32.576Z,7.43
2023-04-28T17:47:01.350Z,9.02
2023-04-28T17:49:28.853Z,24.93
2023-04-28T17:51:56.506Z,10.07
2023-04-28T17:54:23.819Z,10.67
2023-04-28T17:56:51.905Z,10.27
2023-04-28T17:59:19.248Z,7.97
2023-04-28T18:01:46.734Z,9.10
2023-04-28T18:04:14.072Z,11.57
2023-04-28T18:06:41.515Z,13.80
2023-04-28T18:09:08.716Z,12.00
2023-04-28T18:11:37.066Z,11.07
2023-04-28T18:14:04.384Z,13.80
2023-04-28T18:16:31.807Z,14.43
2023-04-28T18:18:59.525Z,23.60
2023-04-28T18:21:28.206Z,23.20
2023-04-28T18:23:55.392Z,152.87
2023-04-28T18:26:23.030Z,90.17
2023-04-28T18:28:50.643Z,83.73
2023-04-28T18:31:18.153Z,121.17
2023-04-28T18:33:45.476Z,80.13
2023-04-28T18:36:13.142Z,102.30
2023-04-28T18:38:40.342Z,175.33
2023-04-28T18:41:16.402Z,91.73
2023-04-28T18:43:44.723Z,65.37
2023-04-28T18:46:12.431Z,38.10
2023-04-28T18:48:40.473Z,38.37
2023-04-28T18:51:08.346Z,88.00
2023-04-28T18:53:36.676Z,64.33
2023-04-28T18:56:04.695Z,46.07
2023-04-28T18:58:32.303Z,28.17
2023-04-28T19:01:01.628Z,26.10
2023-04-28T19:03:30.746Z,26.53
2023-04-28T19:05:58.666Z,25.17
2023-04-28T19:08:26.586Z,25.70
2023-04-28T19:10:57.423Z,25.27
2023-04-28T19:13:25.258Z,25.80
2023-04-28T19:15:57.007Z,24.80
2023-04-28T19:18:24.586Z,25.73
2023-04-28T19:21:00.857Z,27.43
2023-04-28T19:23:29.424Z,26.70
2023-04-28T19:25:58.645Z,26.60
2023-04-28T19:28:26.665Z,28.47
2023-04-28T19:30:56.499Z,36.13
2023-04-28T19:33:27.115Z,34.93
2023-04-28T19:35:55.956Z,29.33
2023-04-28T19:38:24.317Z,29.27
2023-04-28T19:41:01.233Z,26.20
2023-04-28T19:43:28.927Z,27.07
2023-04-28T19:45:57.480Z,27.37
2023-04-28T19:48:26.355Z,32.07
2023-04-28T19:50:55.446Z,41.20
2023-04-28T19:53:24.517Z,38.90
2023-04-28T19:55:52.752Z,41.53
2023-04-28T19:58:21.006Z,33.17
2023-04-28T20:00:49.152Z,37.33
2023-04-28T20:03:17.602Z,30.23
2023-04-28T20:05:45.305Z,26.27
2023-04-28T20:08:14.000Z,26.07
2023-04-28T20:10:42.620Z,24.20
2023-04-28T20:13:10.492Z,22.80
2023-04-28T20:15:39.471Z,22.30
